createdAt,value
2023-09-27T00:00:09.869Z,4.50
2023-09-27T00:02:38.155Z,8.70
2023-09-27T00:05:08.260Z,7.17
2023-09-27T00:07:36.514Z,8.23
2023-09-27T00:10:04.588Z,6.23
2023-09-27T00:12:32.457Z,7.23
2023-09-27T00:14:59.363Z,5.67
2023-09-27T00:17:26.206Z,7.00
2023-09-27T00:19:52.957Z,4.77
2023-09-27T00:22:19.736Z,7.03
2023-09-27T00:24:46.586Z,5.50
2023-09-27T00:27:13.378Z,5.23
2023-09-27T00:29:40.501Z,4.70
2023-09-27T00:32:07.299Z,4.90
2023-09-27T00:34:34.094Z,6.23
2023-09-27T00:37:01.184Z,11.20
2023-09-27T00:39:28.148Z,41.00
2023-09-27T00:41:55.848Z,34.37
2023-09-27T00:44:23.265Z,63.33
2023-09-27T00:46:52.378Z,52.20
2023-09-27T00:49:19.304Z,25.37
2023-09-27T00:51:46.109Z,21.43
2023-09-27T00:54:13.308Z,14.93
2023-09-27T00:56:40.768Z,9.90
2023-09-27T00:59:08.752Z,12.33
2023-09-27T01:01:36.109Z,7.50
2023-09-27T01:04:04.183Z,6.00
2023-09-27T01:06:31.871Z,7.47
2023-09-27T01:08:58.577Z,5.57
2023-09-27T01:11:26.075Z,6.07
2023-09-27T01:13:52.889Z,8.40
2023-09-27T01:16:19.700Z,8.67
2023-09-27T01:18:46.544Z,4.57
2023-09-27T01:21:13.361Z,6.43
2023-09-27T01:23:42.309Z,5.60
2023-09-27T01:26:13.054Z,4.93
2023-09-27T01:28:42.180Z,4.27
2023-09-27T01:31:09.037Z,4.70
2023-09-27T01:33:35.813Z,4.50
2023-09-27T01:36:04.222Z,5.20
2023-09-27T01:38:31.501Z,4.37
2023-09-27T01:40:58.693Z,4.80
2023-09-27T01:43:25.916Z,5.57
2023-09-27T01:45:52.696Z,7.27
2023-09-27T01:48:20.716Z,8.23
2023-09-27T01:50:47.656Z,7.57
2023-09-27T01:53:14.428Z,6.93
2023-09-27T01:55:41.127Z,5.37
2023-09-27T01:58:48.292Z,8.07
2023-09-27T02:01:15.033Z,11.50
2023-09-27T02:03:44.070Z,6.70
2023-09-27T02:06:10.931Z,5.87
2023-09-27T02:08:37.722Z,9.17
2023-09-27T02:11:04.641Z,5.53
2023-09-27T02:13:31.380Z,6.47
2023-09-27T02:15:58.269Z,13.93
2023-09-27T02:18:25.159Z,5.43
2023-09-27T02:20:52.242Z,10.07
2023-09-27T02:23:19.058Z,7.50
2023-09-27T02:25:45.834Z,6.93
2023-09-27T02:28:12.640Z,5.67
2023-09-27T02:30:39.610Z,5.03
2023-09-27T02:33:06.993Z,8.47
2023-09-27T02:35:33.821Z,6.00
2023-09-27T02:38:00.723Z,6.33
2023-09-27T02:40:28.470Z,7.17
2023-09-27T02:42:55.229Z,6.93
2023-09-27T02:45:21.957Z,6.90
2023-09-27T02:47:48.939Z,5.77
2023-09-27T02:50:16.453Z,4.90
2023-09-27T02:52:44.901Z,5.17
2023-09-27T02:55:12.487Z,4.10
2023-09-27T02:57:40.646Z,5.13
2023-09-27T03:00:08.250Z,7.23
2023-09-27T03:02:35.479Z,5.83
2023-09-27T03:05:05.687Z,5.67
2023-09-27T03:07:34.848Z,5.07
2023-09-27T03:10:03.405Z,6.17
2023-09-27T03:12:30.132Z,4.67
2023-09-27T03:14:56.958Z,5.10
2023-09-27T03:17:23.741Z,6.03
2023-09-27T03:19:50.538Z,4.63
2023-09-27T03:22:18.168Z,4.20
2023-09-27T03:24:45.554Z,4.03
2023-09-27T03:27:12.390Z,3.83
2023-09-27T03:29:40.877Z,4.10
2023-09-27T03:32:07.843Z,3.80
2023-09-27T03:34:34.708Z,8.10
2023-09-27T03:37:01.448Z,4.10
2023-09-27T03:39:30.108Z,5.83
2023-09-27T03:41:57.594Z,4.87
2023-09-27T03:44:25.405Z,6.47
2023-09-27T03:46:52.565Z,6.83
2023-09-27T03:49:19.348Z,7.67
2023-09-27T03:51:46.153Z,5.70
2023-09-27T03:54:12.972Z,5.27
2023-09-27T03:56:39.762Z,4.40
2023-09-27T03:59:06.613Z,5.37
2023-09-27T04:01:33.443Z,5.07
2023-09-27T04:04:00.493Z,4.83
2023-09-27T04:06:27.421Z,3.60
2023-09-27T04:08:54.276Z,6.03
2023-09-27T04:11:21.251Z,4.83
2023-09-27T04:13:49.681Z,4.17
2023-09-27T04:16:16.652Z,10.77
2023-09-27T04:18:44.012Z,5.20
2023-09-27T04:21:12.217Z,6.37
2023-09-27T04:23:39.587Z,4.97
2023-09-27T04:26:06.919Z,4.60
2023-09-27T04:28:34.284Z,4.73
2023-09-27T04:31:01.827Z,4.23
2023-09-27T04:33:28.737Z,4.67
2023-09-27T04:35:55.594Z,5.70
2023-09-27T04:38:22.603Z,5.00
2023-09-27T04:40:49.548Z,4.00
2023-09-27T04:43:16.694Z,7.30
2023-09-27T04:45:43.568Z,4.17
2023-09-27T04:48:10.499Z,5.03
2023-09-27T04:50:37.533Z,4.23
2023-09-27T04:53:04.589Z,6.03
2023-09-27T04:55:31.554Z,4.60
2023-09-27T04:57:58.293Z,5.20
2023-09-27T05:00:25.202Z,4.77
2023-09-27T05:02:53.482Z,7.43
2023-09-27T05:05:20.570Z,4.97
2023-09-27T05:07:47.867Z,5.33
2023-09-27T05:10:15.485Z,6.63
2023-09-27T05:12:42.327Z,8.73
2023-09-27T05:15:10.647Z,5.73
2023-09-27T05:17:37.836Z,5.10
2023-09-27T05:20:12.161Z,4.73
2023-09-27T05:22:41.203Z,6.40
2023-09-27T05:25:12.073Z,5.83
2023-09-27T05:27:39.896Z,4.90
2023-09-27T05:30:11.869Z,7.63
2023-09-27T05:32:38.980Z,5.20
2023-09-27T05:35:06.493Z,5.90
2023-09-27T05:37:33.677Z,4.37
2023-09-27T05:40:00.534Z,5.83
2023-09-27T05:42:28.768Z,6.20
2023-09-27T05:44:57.203Z,5.63
2023-09-27T05:47:25.764Z,5.80
2023-09-27T05:49:52.638Z,4.70
2023-09-27T05:52:20.266Z,5.23
2023-09-27T05:54:47.372Z,4.83
2023-09-27T05:57:15.288Z,6.40
2023-09-27T05:59:45.842Z,3.83
2023-09-27T06:02:18.952Z,5.83
2023-09-27T06:04:47.586Z,7.20
2023-09-27T06:07:16.403Z,5.43
2023-09-27T06:09:43.332Z,5.60
2023-09-27T06:12:13.670Z,5.80
2023-09-27T06:14:43.594Z,5.80
2023-09-27T06:17:11.288Z,5.03
2023-09-27T06:19:38.790Z,6.70
2023-09-27T06:22:06.093Z,5.10
2023-09-27T06:24:33.049Z,6.20
2023-09-27T06:27:00.519Z,6.23
2023-09-27T06:29:27.343Z,6.37
2023-09-27T06:31:55.061Z,7.67
2023-09-27T06:34:21.972Z,17.10
2023-09-27T06:36:49.991Z,8.40
2023-09-27T06:39:18.057Z,8.83
2023-09-27T06:41:47.970Z,10.40
2023-09-27T06:44:15.030Z,7.80
2023-09-27T06:46:48.742Z,8.20
2023-09-27T06:49:17.971Z,12.03
2023-09-27T06:51:45.405Z,8.30
2023-09-27T06:54:12.274Z,8.23
2023-09-27T06:56:40.252Z,7.30
2023-09-27T06:59:08.926Z,6.20
2023-09-27T07:01:39.102Z,6.67
2023-09-27T07:04:09.910Z,9.83
2023-09-27T07:06:36.794Z,9.60
2023-09-27T07:09:07.070Z,8.10
2023-09-27T07:11:37.772Z,5.50
2023-09-27T07:14:04.737Z,9.93
